Time;durP1;ratioP1;P1;durP2;ratioP2;P2;SDS_P1;SDS_P2;PMS_P1;PMS_P2;Temp;Humidity;BMP_temperature;BMP_pressure;BME280_temperature;BME280_humidity;BME280_pressure;Samples;Min_cycle;Max_cycle;Signal;HPM_P1;HPM_P2
2022/07/23 00:01:20;;;;;;;4.50;1.33;;;;;;;;;;2326491;57;21043;-75
2022/07/23 00:03:48;;;;;;;2.37;1.17;;;;;;;;;;2326867;57;21127;-76
2022/07/23 00:06:15;;;;;;;4.75;1.87;;;;;;;;;;2326670;57;21071;-76
2022/07/23 00:08:42;;;;;;;3.97;1.40;;;;;;;;;;2326746;57;21574;-75
2022/07/23 00:11:09;;;;;;;3.90;1.65;;;;;;;;;;2327113;57;21047;-75
2022/07/23 00:13:37;;;;;;;3.75;1.42;;;;;;;;;;2326739;57;21063;-75
2022/07/23 00:16:04;;;;;;;1.60;1.20;;;;;;;;;;2331019;54;21636;-75
2022/07/23 00:18:31;;;;;;;2.97;1.33;;;;;;;;;;2326895;57;21638;-75
2022/07/23 00:20:59;;;;;;;4.85;1.70;;;;;;;;;;2325870;57;21646;-75
2022/07/23 00:23:27;;;;;;;5.00;1.65;;;;;;;;;;2326679;54;22252;-75
2022/07/23 00:25:54;;;;;;;2.40;1.30;;;;;;;;;;2326147;57;21106;-75
2022/07/23 00:28:21;;;;;;;4.47;1.25;;;;;;;;;;2326824;57;21040;-75
2022/07/23 00:30:48;;;;;;;1.42;1.10;;;;;;;;;;2327487;57;21078;-75
2022/07/23 00:33:15;;;;;;;3.80;1.30;;;;;;;;;;2326257;57;21036;-75
2022/07/23 00:35:43;;;;;;;3.15;1.50;;;;;;;;;;2326762;57;21059;-75
2022/07/23 00:38:11;;;;;;;3.65;1.35;;;;;;;;;;2331362;54;21131;-74
2022/07/23 00:40:39;;;;;;;3.17;1.40;;;;;;;;;;2326660;57;21067;-75
2022/07/23 00:43:06;;;;;;;2.28;1.52;;;;;;;;;;2326828;57;21388;-75
2022/07/23 00:45:34;;;;;;;3.83;1.42;;;;;;;;;;2326492;57;21412;-76
2022/07/23 00:48:01;;;;;;;2.80;1.30;;;;;;;;;;2326540;57;21107;-75
2022/07/23 00:50:28;;;;;;;3.53;1.40;;;;;;;;;;2327143;57;21123;-75
2022/07/23 00:52:55;;;;;;;3.90;1.48;;;;;;;;;;2326554;57;21078;-75
2022/07/23 00:55:22;;;;;;;2.45;1.67;;;;;;;;;;2326035;57;21111;-75
2022/07/23 00:57:51;;;;;;;5.03;1.62;;;;;;;;;;2326714;57;21625;-75
2022/07/23 01:00:18;;;;;;;1.98;1.15;;;;;;;;;;2327278;57;21063;-76
2022/07/23 01:02:46;;;;;;;2.60;1.30;;;;;;;;;;2326441;57;21064;-75
2022/07/23 01:05:13;;;;;;;2.17;1.10;;;;;;;;;;2327063;57;21099;-76
2022/07/23 01:07:40;;;;;;;3.85;1.20;;;;;;;;;;2403073;54;21537;-75
2022/07/23 01:12:54;;;;;;;3.28;1.70;;;;;;;;;;2553790;53;21115;-75
2022/07/23 01:15:22;;;;;;;2.08;1.27;;;;;;;;;;2326574;57;21664;-75
2022/07/23 01:17:49;;;;;;;3.65;1.80;;;;;;;;;;2327547;57;21066;-75
2022/07/23 01:20:17;;;;;;;2.50;1.25;;;;;;;;;;2325509;57;21079;-75
2022/07/23 01:22:44;;;;;;;2.03;1.40;;;;;;;;;;2326558;57;21150;-76
2022/07/23 01:25:11;;;;;;;7.32;1.42;;;;;;;;;;2327064;57;21043;-75
2022/07/23 01:27:38;;;;;;;2.42;1.80;;;;;;;;;;2326411;57;21051;-75
2022/07/23 01:30:06;;;;;;;5.00;1.50;;;;;;;;;;2326981;57;21115;-75
2022/07/23 01:32:34;;;;;;;5.30;1.65;;;;;;;;;;2327236;57;21047;-75
2022/07/23 01:35:01;;;;;;;4.45;1.37;;;;;;;;;;2324923;57;21040;-76
2022/07/23 01:37:28;;;;;;;3.03;1.50;;;;;;;;;;2326408;57;21134;-75
2022/07/23 01:39:55;;;;;;;4.53;1.30;;;;;;;;;;2326580;57;21059;-75
2022/07/23 01:42:23;;;;;;;4.50;1.65;;;;;;;;;;2326964;57;21399;-75
2022/07/23 01:44:50;;;;;;;2.80;1.30;;;;;;;;;;2326864;57;21059;-74
2022/07/23 01:47:17;;;;;;;3.00;1.40;;;;;;;;;;2325958;57;21661;-75
2022/07/23 01:49:44;;;;;;;3.03;1.20;;;;;;;;;;2327018;57;21043;-75
2022/07/23 01:52:11;;;;;;;1.83;1.60;;;;;;;;;;2432288;54;21055;-75
2022/07/23 01:54:39;;;;;;;2.85;1.40;;;;;;;;;;2327001;57;21035;-75
2022/07/23 01:57:06;;;;;;;4.35;1.10;;;;;;;;;;2326411;57;21064;-76
2022/07/23 01:59:34;;;;;;;2.65;1.23;;;;;;;;;;2343827;54;21035;-74
2022/07/23 02:02:03;;;;;;;2.72;1.25;;;;;;;;;;2326530;57;21637;-75
2022/07/23 02:04:30;;;;;;;1.85;1.08;;;;;;;;;;2327297;57;21147;-75
2022/07/23 02:06:57;;;;;;;1.85;1.05;;;;;;;;;;2326359;57;21114;-74
2022/07/23 02:09:24;;;;;;;4.18;1.12;;;;;;;;;;2326584;57;21134;-75
2022/07/23 02:11:51;;;;;;;2.25;1.23;;;;;;;;;;2326805;57;21051;-75
2022/07/23 02:14:18;;;;;;;1.67;1.17;;;;;;;;;;2352107;54;21626;-75
2022/07/23 02:16:45;;;;;;;2.35;1.23;;;;;;;;;;2325668;57;21071;-76
2022/07/23 02:19:12;;;;;;;2.47;1.12;;;;;;;;;;2326124;57;21127;-76
2022/07/23 02:21:39;;;;;;;1.83;1.00;;;;;;;;;;2326899;57;21643;-75
2022/07/23 02:24:07;;;;;;;5.32;1.50;;;;;;;;;;2326683;57;21067;-75
2022/07/23 02:26:34;;;;;;;2.80;1.30;;;;;;;;;;2326482;57;21059;-75
2022/07/23 02:29:01;;;;;;;1.35;1.12;;;;;;;;;;2325875;57;21126;-75
2022/07/23 02:31:29;;;;;;;3.45;1.12;;;;;;;;;;2327260;57;21111;-75
2022/07/23 02:33:56;;;;;;;5.35;1.35;;;;;;;;;;2326864;57;21078;-75
2022/07/23 02:36:24;;;;;;;2.20;1.27;;;;;;;;;;2326813;57;21047;-75
2022/07/23 02:38:51;;;;;;;1.40;1.12;;;;;;;;;;2327322;57;21054;-75
2022/07/23 02:41:18;;;;;;;4.60;1.33;;;;;;;;;;2326664;57;21325;-75
2022/07/23 02:43:46;;;;;;;4.93;1.40;;;;;;;;;;2326907;57;21039;-75
2022/07/23 02:46:13;;;;;;;3.28;1.17;;;;;;;;;;2326338;57;21064;-75
2022/07/23 02:48:40;;;;;;;2.97;1.30;;;;;;;;;;2325810;57;21205;-75
2022/07/23 02:51:07;;;;;;;1.75;1.12;;;;;;;;;;2329438;54;21114;-75
2022/07/23 02:53:34;;;;;;;2.75;1.20;;;;;;;;;;2326925;57;21039;-75
2022/07/23 02:56:01;;;;;;;1.73;1.10;;;;;;;;;;2326579;57;21043;-75
2022/07/23 02:58:28;;;;;;;2.80;1.40;;;;;;;;;;2336346;54;21190;-75
2022/07/23 03:00:55;;;;;;;2.92;1.37;;;;;;;;;;2326580;57;21119;-75
2022/07/23 03:03:22;;;;;;;2.92;1.33;;;;;;;;;;2331030;54;21134;-76
2022/07/23 03:05:49;;;;;;;2.50;1.33;;;;;;;;;;2333495;54;21114;-76
2022/07/23 03:08:16;;;;;;;1.83;1.25;;;;;;;;;;2329685;54;21044;-75
2022/07/23 03:10:43;;;;;;;2.28;1.23;;;;;;;;;;2326422;57;21723;-75
2022/07/23 03:13:10;;;;;;;1.90;1.10;;;;;;;;;;2326721;57;21121;-75
2022/07/23 03:15:37;;;;;;;4.40;1.40;;;;;;;;;;2326443;57;22215;-76
2022/07/23 03:18:05;;;;;;;3.42;1.48;;;;;;;;;;2326974;57;21048;-75
2022/07/23 03:20:32;;;;;;;1.67;1.55;;;;;;;;;;2326387;57;21067;-75
2022/07/23 03:22:59;;;;;;;3.33;1.33;;;;;;;;;;2327221;57;21043;-75
2022/07/23 03:25:26;;;;;;;3.37;1.23;;;;;;;;;;2325731;57;21349;-75
2022/07/23 03:27:53;;;;;;;1.95;1.10;;;;;;;;;;2491561;54;21062;-74
2022/07/23 03:30:20;;;;;;;2.70;1.20;;;;;;;;;;2327088;57;21091;-75
2022/07/23 03:32:47;;;;;;;4.47;1.37;;;;;;;;;;2326628;57;21051;-75
2022/07/23 03:35:14;;;;;;;3.60;1.20;;;;;;;;;;2326573;57;21657;-75
2022/07/23 03:37:41;;;;;;;2.83;1.37;;;;;;;;;;2387887;54;21122;-75
2022/07/23 03:40:09;;;;;;;2.33;1.48;;;;;;;;;;2327074;57;21321;-75
2022/07/23 03:42:39;;;;;;;2.97;1.30;;;;;;;;;;2327001;57;21040;-75
2022/07/23 03:45:07;;;;;;;2.28;1.30;;;;;;;;;;2326560;57;21075;-75
2022/07/23 03:47:34;;;;;;;2.25;1.35;;;;;;;;;;2326283;57;21630;-75
2022/07/23 03:50:01;;;;;;;3.83;1.40;;;;;;;;;;2326389;57;21055;-76
2022/07/23 03:52:28;;;;;;;2.40;1.48;;;;;;;;;;2327051;57;21577;-76
2022/07/23 03:54:55;;;;;;;3.25;1.27;;;;;;;;;;2326687;57;21605;-76
2022/07/23 03:57:22;;;;;;;2.95;1.23;;;;;;;;;;2326751;57;21127;-75
2022/07/23 03:59:49;;;;;;;4.37;1.55;;;;;;;;;;2326963;57;21059;-75
2022/07/23 04:02:16;;;;;;;4.03;1.37;;;;;;;;;;2446229;54;21102;-75
2022/07/23 04:04:44;;;;;;;4.32;1.52;;;;;;;;;;2490700;54;21047;-75
2022/07/23 04:07:11;;;;;;;6.12;2.67;;;;;;;;;;2325672;57;21040;-75
2022/07/23 04:09:40;;;;;;;3.50;1.30;;;;;;;;;;2428212;54;21052;-74
2022/07/23 04:12:07;;;;;;;2.15;1.20;;;;;;;;;;2327536;57;21075;-76
2022/07/23 04:14:34;;;;;;;3.03;1.15;;;;;;;;;;2327100;57;21565;-75
2022/07/23 04:17:01;;;;;;;2.45;1.55;;;;;;;;;;2327074;57;21039;-74
2022/07/23 04:19:30;;;;;;;2.45;1.17;;;;;;;;;;2327528;57;21052;-74
2022/07/23 04:21:57;;;;;;;3.12;2.03;;;;;;;;;;2326663;54;21060;-75
2022/07/23 04:24:24;;;;;;;2.17;1.30;;;;;;;;;;2344857;54;21111;-75
2022/07/23 04:26:51;;;;;;;4.37;1.40;;;;;;;;;;2326196;57;21063;-75
2022/07/23 04:29:18;;;;;;;1.90;1.02;;;;;;;;;;2326998;57;21091;-74
2022/07/23 04:31:45;;;;;;;2.65;1.17;;;;;;;;;;2326850;57;21103;-75
2022/07/23 04:34:12;;;;;;;2.95;1.10;;;;;;;;;;2326818;57;21620;-75
2022/07/23 04:36:39;;;;;;;4.80;1.67;;;;;;;;;;2326386;57;21557;-75
2022/07/23 04:39:06;;;;;;;1.27;1.00;;;;;;;;;;2327466;57;21047;-76
2022/07/23 04:41:34;;;;;;;3.12;1.55;;;;;;;;;;2326809;57;21079;-75
2022/07/23 04:44:01;;;;;;;3.05;1.50;;;;;;;;;;2328110;57;22157;-75
2022/07/23 04:46:28;;;;;;;4.07;1.60;;;;;;;;;;2357790;54;21123;-75
2022/07/23 04:48:56;;;;;;;1.33;1.20;;;;;;;;;;2327584;57;21039;-75
2022/07/23 04:51:23;;;;;;;4.10;1.20;;;;;;;;;;2327250;57;21086;-75
2022/07/23 04:53:50;;;;;;;4.57;1.70;;;;;;;;;;2327874;57;21027;-74
2022/07/23 04:56:17;;;;;;;2.12;1.10;;;;;;;;;;2393610;54;71234;-83
2022/07/23 04:58:44;;;;;;;3.97;1.25;;;;;;;;;;2241371;60;21115;-83
2022/07/23 05:01:11;;;;;;;2.37;1.15;;;;;;;;;;2241606;60;21154;-84
2022/07/23 05:03:38;;;;;;;1.60;0.93;;;;;;;;;;2465383;56;21083;-81
2022/07/23 05:06:05;;;;;;;3.65;1.37;;;;;;;;;;2253527;59;21657;-83
2022/07/23 05:08:32;;;;;;;3.92;1.23;;;;;;;;;;2266290;59;21076;-82
2022/07/23 05:10:59;;;;;;;1.45;1.02;;;;;;;;;;2267672;59;21581;-83
2022/07/23 05:13:26;;;;;;;2.80;1.20;;;;;;;;;;2266145;59;21081;-83
2022/07/23 05:15:53;;;;;;;4.25;1.25;;;;;;;;;;2266408;59;21081;-83
2022/07/23 05:18:20;;;;;;;4.00;1.17;;;;;;;;;;2265442;59;21085;-84
2022/07/23 05:20:47;;;;;;;3.10;1.35;;;;;;;;;;2265529;59;21139;-82
2022/07/23 05:23:14;;;;;;;1.40;1.02;;;;;;;;;;2266516;59;21704;-84
2022/07/23 05:25:41;;;;;;;2.75;0.90;;;;;;;;;;2266628;59;21072;-83
2022/07/23 05:28:08;;;;;;;1.75;1.10;;;;;;;;;;2497087;55;21136;-84
2022/07/23 05:30:35;;;;;;;2.28;1.17;;;;;;;;;;2496903;55;21081;-82
2022/07/23 05:33:02;;;;;;;1.77;0.98;;;;;;;;;;2266830;59;21077;-83
2022/07/23 05:35:29;;;;;;;3.87;1.40;;;;;;;;;;2496393;55;21629;-83
2022/07/23 05:37:56;;;;;;;1.10;1.00;;;;;;;;;;2266301;59;21148;-83
2022/07/23 05:40:23;;;;;;;3.92;1.00;;;;;;;;;;2267418;59;21144;-83
2022/07/23 05:42:50;;;;;;;2.87;1.23;;;;;;;;;;2267173;59;21076;-83
2022/07/23 05:45:17;;;;;;;2.28;1.15;;;;;;;;;;2266905;59;21092;-84
2022/07/23 05:47:45;;;;;;;4.03;1.50;;;;;;;;;;2497390;55;21045;-83
2022/07/23 05:50:13;;;;;;;1.48;1.00;;;;;;;;;;2266943;59;21557;-82
2022/07/23 05:52:40;;;;;;;1.98;0.95;;;;;;;;;;2496541;55;21053;-82
2022/07/23 05:55:08;;;;;;;1.67;1.20;;;;;;;;;;2267111;59;21630;-83
2022/07/23 05:57:35;;;;;;;1.77;1.17;;;;;;;;;;2265864;59;21080;-84
2022/07/23 06:00:02;;;;;;;0.85;0.80;;;;;;;;;;2495724;55;21088;-83
2022/07/23 06:02:29;;;;;;;1.87;0.90;;;;;;;;;;2265811;59;21088;-83
2022/07/23 06:04:56;;;;;;;2.05;0.85;;;;;;;;;;2495977;55;21073;-82
2022/07/23 06:07:23;;;;;;;2.78;0.90;;;;;;;;;;2496421;55;21132;-83
2022/07/23 06:09:50;;;;;;;5.18;1.45;;;;;;;;;;2266821;59;21117;-83
2022/07/23 06:12:17;;;;;;;4.15;1.25;;;;;;;;;;2266956;59;21132;-83
2022/07/23 06:14:44;;;;;;;1.95;0.93;;;;;;;;;;2496920;55;21128;-83
2022/07/23 06:17:11;;;;;;;1.60;1.00;;;;;;;;;;2266943;59;21068;-83
2022/07/23 06:19:38;;;;;;;1.55;0.80;;;;;;;;;;2497496;55;21624;-82
2022/07/23 06:22:05;;;;;;;2.40;0.82;;;;;;;;;;2497525;55;21061;-83
2022/07/23 06:24:32;;;;;;;1.00;0.90;;;;;;;;;;2267885;59;21212;-83
2022/07/23 06:26:59;;;;;;;2.55;1.25;;;;;;;;;;2496977;55;21084;-82
2022/07/23 06:29:26;;;;;;;0.82;0.70;;;;;;;;;;2267119;59;21073;-82
2022/07/23 06:31:53;;;;;;;1.30;0.77;;;;;;;;;;2267476;59;21136;-83
2022/07/23 06:34:20;;;;;;;0.95;0.70;;;;;;;;;;2266981;59;21212;-83
2022/07/23 06:36:48;;;;;;;2.35;0.80;;;;;;;;;;2266739;59;21166;-83
2022/07/23 06:39:15;;;;;;;2.72;0.90;;;;;;;;;;2267514;59;21088;-82
2022/07/23 06:41:42;;;;;;;1.50;0.90;;;;;;;;;;2497730;55;21061;-78
2022/07/23 06:44:09;;;;;;;1.90;0.90;;;;;;;;;;2267511;59;21069;-76
2022/07/23 06:46:36;;;;;;;1.00;0.85;;;;;;;;;;2266663;59;21561;-74
2022/07/23 06:49:04;;;;;;;1.45;0.90;;;;;;;;;;2497567;55;21064;-76
2022/07/23 06:51:31;;;;;;;0.80;0.80;;;;;;;;;;2266157;59;21041;-77
2022/07/23 06:53:58;;;;;;;5.15;1.00;;;;;;;;;;2495280;55;21065;-77
2022/07/23 06:56:25;;;;;;;3.10;0.90;;;;;;;;;;2265466;59;21151;-78
2022/07/23 06:58:52;;;;;;;5.43;1.12;;;;;;;;;;2265630;59;21584;-75
2022/07/23 07:01:19;;;;;;;1.60;0.80;;;;;;;;;;2496292;55;21053;-76
2022/07/23 07:03:46;;;;;;;2.08;0.90;;;;;;;;;;2266560;59;21672;-76
2022/07/23 07:06:14;;;;;;;1.23;0.73;;;;;;;;;;2265598;59;21187;-75
2022/07/23 07:08:42;;;;;;;3.12;0.80;;;;;;;;;;2265920;59;21569;-74
2022/07/23 07:11:10;;;;;;;2.05;1.10;;;;;;;;;;2496440;55;21184;-75
2022/07/23 07:13:37;;;;;;;0.50;0.50;;;;;;;;;;2265673;59;21086;-77
2022/07/23 07:16:04;;;;;;;3.60;0.80;;;;;;;;;;2266140;59;21052;-76
2022/07/23 07:18:31;;;;;;;1.35;0.80;;;;;;;;;;2265058;59;21085;-76
2022/07/23 07:20:58;;;;;;;0.57;0.57;;;;;;;;;;2265613;59;21065;-76
2022/07/23 07:23:25;;;;;;;1.75;0.80;;;;;;;;;;2265038;59;21152;-76
2022/07/23 07:25:52;;;;;;;2.20;0.85;;;;;;;;;;2265246;59;21068;-75
2022/07/23 07:28:19;;;;;;;1.77;0.77;;;;;;;;;;2265511;59;21132;-79
2022/07/23 07:30:46;;;;;;;0.90;0.80;;;;;;;;;;2496715;55;21148;-76
2022/07/23 07:33:13;;;;;;;1.62;0.70;;;;;;;;;;2496127;55;21136;-77
2022/07/23 07:35:40;;;;;;;1.48;0.70;;;;;;;;;;2495041;55;21184;-78
2022/07/23 07:38:07;;;;;;;1.83;0.75;;;;;;;;;;2265910;59;21660;-75
2022/07/23 07:40:34;;;;;;;3.37;0.70;;;;;;;;;;2494946;55;21585;-76
2022/07/23 07:43:03;;;;;;;2.08;0.62;;;;;;;;;;2265579;59;21641;-76
2022/07/23 07:45:30;;;;;;;1.60;0.50;;;;;;;;;;2494934;55;21068;-77
2022/07/23 07:47:58;;;;;;;2.00;0.77;;;;;;;;;;2494558;55;21580;-77
2022/07/23 07:50:26;;;;;;;2.85;0.70;;;;;;;;;;2265571;59;21120;-76
2022/07/23 07:52:53;;;;;;;1.58;1.00;;;;;;;;;;2266498;59;21188;-84
2022/07/23 07:55:20;;;;;;;2.30;0.70;;;;;;;;;;2267301;59;21085;-83
2022/07/23 07:57:47;;;;;;;2.22;0.88;;;;;;;;;;2268458;59;21095;-83
2022/07/23 08:00:14;;;;;;;1.52;0.82;;;;;;;;;;2498360;55;21081;-83
2022/07/23 08:02:42;;;;;;;1.58;0.65;;;;;;;;;;2268152;59;21144;-83
2022/07/23 08:05:10;;;;;;;3.50;0.80;;;;;;;;;;2268486;59;21079;-83
2022/07/23 08:07:38;;;;;;;3.03;0.70;;;;;;;;;;2267690;59;21120;-83
2022/07/23 08:10:07;;;;;;;1.40;0.70;;;;;;;;;;2267737;59;21072;-84
2022/07/23 08:12:44;;;;;;;2.30;1.10;;;;;;;;;;2498329;55;21077;-83
2022/07/23 08:15:12;;;;;;;2.70;0.80;;;;;;;;;;2498186;55;21518;-82
2022/07/23 08:17:39;;;;;;;1.80;0.68;;;;;;;;;;2268123;59;21065;-83
2022/07/23 08:20:07;;;;;;;1.90;0.90;;;;;;;;;;2268448;59;21137;-84
2022/07/23 08:22:45;;;;;;;2.03;0.98;;;;;;;;;;2498296;55;21117;-84
2022/07/23 08:25:12;;;;;;;1.42;0.70;;;;;;;;;;2498179;55;21132;-82
2022/07/23 08:27:39;;;;;;;1.52;0.60;;;;;;;;;;2267575;59;21620;-82
2022/07/23 08:30:07;;;;;;;2.37;0.88;;;;;;;;;;2268392;59;21077;-83
2022/07/23 08:32:48;;;;;;;2.55;0.90;;;;;;;;;;2268516;59;21554;-84
2022/07/23 08:35:15;;;;;;;3.17;0.73;;;;;;;;;;2497567;55;21671;-82
2022/07/23 08:37:42;;;;;;;2.40;0.80;;;;;;;;;;2268547;59;21122;-83
2022/07/23 08:40:10;;;;;;;1.45;0.75;;;;;;;;;;2268160;59;21080;-85
2022/07/23 08:42:37;;;;;;;2.62;1.02;;;;;;;;;;2268328;59;21092;-83
2022/07/23 08:45:05;;;;;;;2.20;0.90;;;;;;;;;;2497691;55;21073;-82
2022/07/23 08:47:32;;;;;;;1.87;0.80;;;;;;;;;;2496767;55;21557;-83
2022/07/23 08:49:59;;;;;;;2.62;0.85;;;;;;;;;;2268088;59;21112;-83
2022/07/23 08:52:27;;;;;;;2.08;0.85;;;;;;;;;;2268153;59;21077;-82
2022/07/23 08:54:54;;;;;;;4.32;0.90;;;;;;;;;;2497785;55;21092;-82
2022/07/23 08:57:21;;;;;;;2.25;0.70;;;;;;;;;;2267869;59;21598;-83
2022/07/23 08:59:48;;;;;;;3.35;0.65;;;;;;;;;;2268065;59;21593;-82
2022/07/23 09:02:15;;;;;;;2.20;0.93;;;;;;;;;;2268123;59;21157;-82
2022/07/23 09:04:42;;;;;;;1.95;1.08;;;;;;;;;;2268523;59;21115;-83
2022/07/23 09:07:09;;;;;;;5.37;1.55;;;;;;;;;;2268006;59;21119;-81
2022/07/23 09:09:36;;;;;;;3.58;0.80;;;;;;;;;;2268576;59;21069;-84
2022/07/23 09:12:05;;;;;;;3.10;1.30;;;;;;;;;;2268362;59;21065;-82
2022/07/23 09:14:38;;;;;;;1.45;0.82;;;;;;;;;;2268062;59;21641;-82
2022/07/23 09:17:09;;;;;;;1.58;0.80;;;;;;;;;;2268337;59;21580;-83
2022/07/23 09:19:36;;;;;;;10.20;1.00;;;;;;;;;;2267429;59;21212;-82
2022/07/23 09:22:17;;;;;;;1.50;0.77;;;;;;;;;;2496679;55;22633;-83
2022/07/23 09:25:02;;;;;;;1.00;0.90;;;;;;;;;;2267058;59;21614;-84
2022/07/23 09:27:46;;;;;;;1.15;0.90;;;;;;;;;;2495834;55;21129;-84
2022/07/23 09:30:13;;;;;;;1.83;0.90;;;;;;;;;;2267766;59;21061;-85
2022/07/23 09:32:40;;;;;;;3.72;0.82;;;;;;;;;;2268762;59;21760;-84
2022/07/23 09:35:08;;;;;;;3.05;0.90;;;;;;;;;;2267785;59;21561;-84
2022/07/23 09:37:35;;;;;;;3.00;0.88;;;;;;;;;;2267252;59;21124;-85
2022/07/23 09:40:05;;;;;;;1.67;1.05;;;;;;;;;;2267978;59;21664;-82
2022/07/23 09:42:32;;;;;;;1.45;0.77;;;;;;;;;;2497315;55;21088;-84
2022/07/23 09:45:00;;;;;;;1.12;0.70;;;;;;;;;;2497463;55;21097;-83
2022/07/23 09:47:28;;;;;;;0.90;0.70;;;;;;;;;;2268319;59;21124;-82
2022/07/23 09:50:04;;;;;;;2.80;0.90;;;;;;;;;;2267066;59;21657;-81
2022/07/23 09:52:31;;;;;;;1.50;0.60;;;;;;;;;;2267299;59;21069;-83
2022/07/23 09:54:59;;;;;;;1.00;0.70;;;;;;;;;;2497282;55;21637;-83
2022/07/23 09:57:26;;;;;;;4.22;0.70;;;;;;;;;;2267036;59;21084;-83
2022/07/23 09:59:54;;;;;;;1.25;0.47;;;;;;;;;;2267999;59;21148;-83
2022/07/23 10:02:21;;;;;;;0.80;0.55;;;;;;;;;;2268786;59;21064;-82
2022/07/23 10:04:48;;;;;;;2.30;0.75;;;;;;;;;;2267316;59;21168;-82
2022/07/23 10:07:18;;;;;;;1.25;0.70;;;;;;;;;;2267356;59;21156;-83
2022/07/23 10:09:46;;;;;;;0.88;0.50;;;;;;;;;;2266895;59;21117;-84
2022/07/23 10:15:05;;;;;;;3.30;0.88;;;;;;;;;;2211934;59;21053;-79
2022/07/23 10:17:32;;;;;;;2.90;0.90;;;;;;;;;;2266418;59;21072;-82
2022/07/23 10:19:59;;;;;;;2.33;0.80;;;;;;;;;;2264728;59;21080;-79
2022/07/23 10:22:28;;;;;;;1.58;0.70;;;;;;;;;;2267533;59;21096;-81
2022/07/23 10:25:00;;;;;;;3.75;1.12;;;;;;;;;;2496430;55;21656;-81
2022/07/23 10:27:55;;;;;;;1.83;0.80;;;;;;;;;;2264670;59;21080;-81
2022/07/23 10:30:25;;;;;;;3.10;0.80;;;;;;;;;;2496082;55;21144;-77
2022/07/23 10:32:57;;;;;;;1.70;0.98;;;;;;;;;;2266734;59;21053;-79
2022/07/23 10:35:27;;;;;;;3.17;1.02;;;;;;;;;;2265391;59;21061;-81
2022/07/23 10:37:57;;;;;;;1.75;0.50;;;;;;;;;;2496297;55;21597;-79
2022/07/23 10:40:26;;;;;;;1.02;0.30;;;;;;;;;;2495940;55;22496;-79
2022/07/23 10:42:55;;;;;;;0.60;0.50;;;;;;;;;;2265481;59;21183;-79
2022/07/23 10:45:27;;;;;;;0.50;0.50;;;;;;;;;;2264885;59;21069;-80
2022/07/23 10:47:54;;;;;;;1.02;0.60;;;;;;;;;;2265064;59;21581;-81
2022/07/23 10:50:22;;;;;;;1.20;0.70;;;;;;;;;;2265701;59;21177;-77
2022/07/23 10:53:12;;;;;;;1.50;0.50;;;;;;;;;;2265655;59;21093;-79
2022/07/23 10:55:47;;;;;;;1.80;0.60;;;;;;;;;;2265503;59;21096;-78
2022/07/23 10:58:19;;;;;;;2.80;1.75;;;;;;;;;;2547756;53;73208;-76
2022/07/23 11:00:46;;;;;;;2.03;0.70;;;;;;;;;;2349027;57;21544;-76
2022/07/23 11:03:33;;;;;;;3.30;0.68;;;;;;;;;;2348787;57;21695;-76
2022/07/23 11:06:00;;;;;;;1.15;0.60;;;;;;;;;;2597366;53;21723;-76
2022/07/23 11:08:27;;;;;;;0.95;0.70;;;;;;;;;;2349780;57;22172;-76
2022/07/23 11:10:56;;;;;;;1.87;0.80;;;;;;;;;;2349260;57;21063;-76
2022/07/23 11:13:37;;;;;;;1.85;0.60;;;;;;;;;;2348912;57;21054;-76
2022/07/23 11:16:10;;;;;;;1.50;0.70;;;;;;;;;;2348757;57;21049;-77
2022/07/23 11:18:36;;;;;;;;;;;;;;;;;;2352947;57;21548;-76
2022/07/23 11:21:23;;;;;;;2.58;0.95;;;;;;;;;;2349124;57;20455;-77
2022/07/23 11:23:59;;;;;;;1.37;0.60;;;;;;;;;;2349011;57;21201;-76
2022/07/23 11:26:43;;;;;;;1.02;0.77;;;;;;;;;;2595514;53;21075;-75
2022/07/23 11:29:31;;;;;;;0.68;0.60;;;;;;;;;;2349177;57;21133;-76
2022/07/23 11:34:33;;;;;;;1.80;0.60;;;;;;;;;;2332222;57;32302;-75
2022/07/23 11:37:01;;;;;;;1.20;0.60;;;;;;;;;;2344885;57;21061;-76
2022/07/23 11:39:29;;;;;;;0.40;0.40;;;;;;;;;;2592200;52;21112;-76
2022/07/23 11:41:56;;;;;;;1.20;0.60;;;;;;;;;;2364638;56;21095;-76
2022/07/23 11:44:27;;;;;;;0.52;0.52;;;;;;;;;;2371682;56;21027;-76
2022/07/23 11:46:57;;;;;;;1.37;0.75;;;;;;;;;;2371247;56;21042;-76
2022/07/23 11:49:24;;;;;;;1.30;0.62;;;;;;;;;;2370512;56;21118;-76
2022/07/23 11:52:04;;;;;;;0.75;0.40;;;;;;;;;;2371845;56;21046;-76
2022/07/23 11:54:31;;;;;;;0.93;0.52;;;;;;;;;;2625602;52;21043;-77
2022/07/23 11:56:59;;;;;;;1.37;0.73;;;;;;;;;;2368705;56;21122;-76
2022/07/23 11:59:27;;;;;;;1.15;0.60;;;;;;;;;;2370205;56;21051;-76
2022/07/23 12:01:58;;;;;;;2.33;0.60;;;;;;;;;;2371394;56;21047;-77
2022/07/23 12:04:26;;;;;;;1.83;0.70;;;;;;;;;;2371582;56;21182;-76
2022/07/23 12:06:53;;;;;;;2.67;1.35;;;;;;;;;;2371878;56;21049;-76
2022/07/23 12:09:20;;;;;;;4.35;0.82;;;;;;;;;;2625724;52;21043;-76
2022/07/23 12:14:47;;;;;;;0.80;0.50;;;;;;;;;;2329140;57;22067;-77
2022/07/23 12:17:14;;;;;;;1.45;0.60;;;;;;;;;;2346736;57;21065;-77
2022/07/23 12:19:42;;;;;;;0.98;0.57;;;;;;;;;;2346487;57;21025;-78
2022/07/23 12:22:09;;;;;;;1.73;0.60;;;;;;;;;;2593238;53;21057;-77
2022/07/23 12:24:53;;;;;;;0.82;0.47;;;;;;;;;;2593719;53;21112;-77
2022/07/23 12:27:22;;;;;;;1.75;0.65;;;;;;;;;;2592498;53;21143;-77
2022/07/23 12:29:49;;;;;;;1.42;0.85;;;;;;;;;;2593680;53;21650;-79
2022/07/23 12:32:20;;;;;;;0.50;0.50;;;;;;;;;;2345569;57;21061;-78
2022/07/23 12:34:47;;;;;;;1.33;0.60;;;;;;;;;;2594144;53;21018;-78
2022/07/23 12:37:27;;;;;;;1.65;0.70;;;;;;;;;;2344942;57;21120;-78
2022/07/23 12:39:54;;;;;;;6.12;1.10;;;;;;;;;;2345795;57;21045;-78
2022/07/23 12:42:24;;;;;;;5.95;1.37;;;;;;;;;;2345680;57;21101;-77
2022/07/23 12:45:08;;;;;;;2.15;0.80;;;;;;;;;;2346368;57;21026;-78
2022/07/23 12:47:54;;;;;;;1.23;0.50;;;;;;;;;;2346078;57;21109;-79
2022/07/23 12:50:46;;;;;;;2.10;0.60;;;;;;;;;;2593052;53;21132;-79
2022/07/23 12:53:15;;;;;;;0.73;0.50;;;;;;;;;;2339560;57;22193;-78
2022/07/23 12:55:43;;;;;;;0.90;0.60;;;;;;;;;;2592990;52;21050;-79
2022/07/23 12:58:11;;;;;;;1.73;0.77;;;;;;;;;;2593324;52;21065;-78
2022/07/23 13:01:09;;;;;;;4.12;0.70;;;;;;;;;;2346263;57;21050;-79
2022/07/23 13:03:38;;;;;;;1.05;0.90;;;;;;;;;;2265245;57;21053;-78
2022/07/23 13:06:06;;;;;;;3.85;0.77;;;;;;;;;;2591995;53;21105;-78
2022/07/23 13:08:34;;;;;;;2.97;1.00;;;;;;;;;;2345671;57;21573;-78
2022/07/23 13:11:01;;;;;;;1.30;0.57;;;;;;;;;;2592728;53;21129;-77
2022/07/23 13:13:30;;;;;;;3.45;1.23;;;;;;;;;;2345077;57;21053;-79
2022/07/23 13:15:57;;;;;;;2.10;1.20;;;;;;;;;;2344830;57;21125;-78
2022/07/23 13:18:24;;;;;;;1.05;0.80;;;;;;;;;;2591598;53;21566;-78
2022/07/23 13:20:52;;;;;;;1.42;0.70;;;;;;;;;;2591900;52;21069;-78
2022/07/23 13:23:19;;;;;;;1.12;0.50;;;;;;;;;;2344521;57;21049;-77
2022/07/23 13:25:46;;;;;;;2.03;0.47;;;;;;;;;;2344617;57;21621;-79
2022/07/23 13:28:13;;;;;;;1.33;0.57;;;;;;;;;;2591385;53;21038;-78
2022/07/23 13:30:41;;;;;;;0.70;0.35;;;;;;;;;;2344876;57;21557;-78
2022/07/23 13:33:08;;;;;;;0.77;0.60;;;;;;;;;;2590425;52;21546;-78
2022/07/23 13:35:36;;;;;;;1.33;0.60;;;;;;;;;;2343317;57;22154;-77
2022/07/23 13:38:03;;;;;;;1.23;0.60;;;;;;;;;;2590176;53;21617;-78
2022/07/23 13:40:30;;;;;;;0.77;0.50;;;;;;;;;;2343362;57;21629;-79
2022/07/23 13:42:57;;;;;;;0.68;0.57;;;;;;;;;;2343906;57;21064;-78
2022/07/23 13:45:25;;;;;;;1.85;0.75;;;;;;;;;;2342868;57;21733;-78
2022/07/23 13:47:52;;;;;;;5.70;0.70;;;;;;;;;;2343537;57;21139;-78
2022/07/23 13:50:19;;;;;;;0.60;0.50;;;;;;;;;;2589692;53;21105;-83
2022/07/23 13:52:46;;;;;;;1.58;0.73;;;;;;;;;;2591568;53;21133;-84
2022/07/23 13:55:13;;;;;;;2.03;0.55;;;;;;;;;;2590091;53;21117;-83
2022/07/23 13:57:40;;;;;;;0.55;0.40;;;;;;;;;;2590713;53;21391;-84
2022/07/23 14:00:09;;;;;;;0.82;0.62;;;;;;;;;;2343838;57;21069;-83
2022/07/23 14:02:37;;;;;;;1.05;0.60;;;;;;;;;;2592767;53;21057;-83
2022/07/23 14:05:04;;;;;;;1.85;0.95;;;;;;;;;;2590823;53;21065;-83
2022/07/23 14:07:31;;;;;;;2.12;1.20;;;;;;;;;;2591100;53;21061;-83
2022/07/23 14:09:58;;;;;;;1.50;0.93;;;;;;;;;;2345781;57;21100;-81
2022/07/23 14:12:25;;;;;;;1.77;0.93;;;;;;;;;;2345285;57;21136;-84
2022/07/23 14:14:52;;;;;;;1.50;0.70;;;;;;;;;;2345301;57;21100;-85
2022/07/23 14:17:19;;;;;;;1.65;0.82;;;;;;;;;;2592439;52;21045;-84
2022/07/23 14:19:47;;;;;;;2.03;0.90;;;;;;;;;;2345428;57;21069;-83
2022/07/23 14:22:14;;;;;;;3.53;0.80;;;;;;;;;;2345852;57;21589;-84
2022/07/23 14:24:41;;;;;;;2.10;0.85;;;;;;;;;;2345075;57;21085;-84
2022/07/23 14:27:08;;;;;;;1.92;0.57;;;;;;;;;;2345041;57;21052;-85
2022/07/23 14:29:35;;;;;;;1.80;0.73;;;;;;;;;;2592939;53;21172;-83
2022/07/23 14:32:03;;;;;;;1.10;0.68;;;;;;;;;;2593085;53;21085;-84
2022/07/23 14:34:30;;;;;;;2.42;0.95;;;;;;;;;;2344769;57;21065;-85
2022/07/23 14:36:57;;;;;;;2.30;0.80;;;;;;;;;;2344975;57;21604;-77
2022/07/23 14:39:24;;;;;;;2.40;0.70;;;;;;;;;;2346038;57;21029;-84
2022/07/23 14:41:51;;;;;;;1.80;1.10;;;;;;;;;;2347191;57;21694;-84
2022/07/23 14:44:18;;;;;;;4.18;0.50;;;;;;;;;;2592159;53;21188;-84
2022/07/23 14:46:45;;;;;;;1.48;0.70;;;;;;;;;;2593350;53;21128;-84
2022/07/23 14:49:12;;;;;;;0.93;0.60;;;;;;;;;;2346756;57;21050;-85
2022/07/23 14:51:42;;;;;;;4.35;0.65;;;;;;;;;;2593711;53;21113;-83
2022/07/23 14:54:09;;;;;;;1.83;0.65;;;;;;;;;;2593910;53;21126;-84
2022/07/23 14:56:36;;;;;;;3.05;0.80;;;;;;;;;;2591807;53;21049;-80
2022/07/23 14:59:03;;;;;;;2.00;0.82;;;;;;;;;;2593216;53;21208;-85
2022/07/23 15:01:30;;;;;;;3.60;1.00;;;;;;;;;;2594104;53;21073;-84